Time;durP1;ratioP1;P1;durP2;ratioP2;P2;SDS_P1;SDS_P2;PMS_P1;PMS_P2;Temp;Humidity;BMP_temperature;BMP_pressure;BME280_temperature;BME280_humidity;BME280_pressure;Samples;Min_cycle;Max_cycle;Signal;HPM_P1;HPM_P2
2024/04/18 00:00:43;;;;;;;12.93;7.10;;;6.80;99.90;;;;;;7279958;19;20186;-83
2024/04/18 00:03:09;;;;;;;13.20;6.83;;;6.90;99.90;;;;;;7281845;19;20559;-83
2024/04/18 00:05:34;;;;;;;12.27;6.60;;;6.90;99.90;;;;;;7281791;19;20185;-83
2024/04/18 00:08:00;;;;;;;13.30;6.83;;;6.90;99.90;;;;;;7288090;19;20189;-83
2024/04/18 00:10:26;;;;;;;12.40;6.77;;;7.00;99.90;;;;;;7310129;19;20264;-83
2024/04/18 00:12:52;;;;;;;10.87;6.53;;;7.10;99.90;;;;;;7287091;19;20189;-83
2024/04/18 00:15:24;;;;;;;13.43;6.33;;;7.10;99.90;;;;;;7286964;19;20194;-83
2024/04/18 00:17:56;;;;;;;13.67;7.33;;;7.20;99.90;;;;;;7287658;19;20613;-83
2024/04/18 00:20:23;;;;;;;12.17;6.97;;;7.20;99.90;;;;;;7286033;19;20189;-84
2024/04/18 00:22:49;;;;;;;12.50;7.17;;;7.20;99.90;;;;;;7287816;19;20263;-83
2024/04/18 00:25:16;;;;;;;13.27;7.17;;;7.30;99.90;;;;;;7287786;19;20195;-84
2024/04/18 00:27:51;;;;;;;12.17;7.00;;;7.40;99.90;;;;;;7285451;19;20195;-83
2024/04/18 00:30:41;;;;;;;12.17;6.77;;;7.50;99.90;;;;;;7183195;19;2006037;-83
2024/04/18 00:33:07;;;;;;;12.67;7.50;;;7.40;99.90;;;;;;7287421;19;20195;-83
2024/04/18 00:35:36;;;;;;;13.53;6.80;;;7.40;99.90;;;;;;7286948;19;20269;-82
2024/04/18 00:38:10;;;;;;;11.87;7.30;;;7.40;99.90;;;;;;7286243;19;20660;-83
2024/04/18 00:40:39;;;;;;;11.73;7.13;;;7.40;99.90;;;;;;7287615;19;20660;-83
2024/04/18 00:43:16;;;;;;;13.77;8.00;;;7.50;99.90;;;;;;7286590;19;20196;-83
2024/04/18 00:45:42;;;;;;;11.70;6.63;;;7.50;99.90;;;;;;7287255;19;20182;-83
2024/04/18 00:48:24;;;;;;;15.23;7.30;;;7.50;99.90;;;;;;7286800;19;20281;-83
2024/04/18 00:50:53;;;;;;;12.63;6.50;;;7.50;99.90;;;;;;7286717;19;20750;-83
2024/04/18 00:53:21;;;;;;;12.73;7.10;;;7.40;99.90;;;;;;7289513;19;20624;-84
2024/04/18 00:55:51;;;;;;;11.40;7.00;;;7.40;99.90;;;;;;7287547;19;20196;-83
2024/04/18 00:58:17;;;;;;;13.23;6.93;;;7.40;99.90;;;;;;7284691;19;20194;-83
2024/04/18 01:00:46;;;;;;;13.70;7.60;;;7.50;99.90;;;;;;7286013;19;20198;-83
2024/04/18 01:03:31;;;;;;;11.63;7.17;;;7.50;99.90;;;;;;7267922;19;20206;-83
2024/04/18 01:06:09;;;;;;;10.60;6.80;;;7.60;99.90;;;;;;7283623;19;20195;-83
2024/04/18 01:08:54;;;;;;;10.93;6.40;;;7.60;99.90;;;;;;7283569;19;20204;-83
2024/04/18 01:11:30;;;;;;;11.00;6.93;;;7.50;99.90;;;;;;7271525;19;20199;-83
2024/04/18 01:13:55;;;;;;;10.97;7.10;;;7.40;99.90;;;;;;7304530;19;20215;-83
2024/04/18 01:16:22;;;;;;;11.80;7.27;;;7.30;99.90;;;;;;7285297;19;20531;-83
2024/04/18 01:18:49;;;;;;;10.70;6.60;;;7.20;99.90;;;;;;7284687;19;20695;-83
2024/04/18 01:21:15;;;;;;;11.87;6.93;;;7.20;99.90;;;;;;7284903;19;20207;-84
2024/04/18 01:23:41;;;;;;;13.90;7.67;;;7.20;99.90;;;;;;7284317;19;20194;-83
2024/04/18 01:26:10;;;;;;;12.93;8.07;;;7.20;99.90;;;;;;7286107;19;20221;-83
2024/04/18 01:28:36;;;;;;;15.37;7.97;;;7.20;99.90;;;;;;7284894;19;20190;-83
2024/04/18 01:31:02;;;;;;;12.83;7.70;;;7.10;99.90;;;;;;7286391;19;20187;-83
2024/04/18 01:33:28;;;;;;;15.07;8.70;;;7.10;99.90;;;;;;7299049;19;20274;-82
2024/04/18 01:35:54;;;;;;;16.83;8.37;;;7.20;99.90;;;;;;7300073;19;20193;-83
2024/04/18 01:38:20;;;;;;;13.20;8.10;;;7.10;99.90;;;;;;7285088;19;20663;-83
2024/04/18 01:40:45;;;;;;;14.43;7.83;;;7.10;99.90;;;;;;7284515;19;20217;-83
2024/04/18 01:43:30;;;;;;;13.73;7.90;;;7.00;99.90;;;;;;7261845;19;20224;-83
2024/04/18 01:46:14;;;;;;;13.23;8.07;;;6.90;99.90;;;;;;7286380;19;20694;-84
2024/04/18 01:48:57;;;;;;;13.90;7.60;;;6.90;99.90;;;;;;7284777;19;20192;-83
2024/04/18 01:51:43;;;;;;;15.33;8.03;;;6.80;99.90;;;;;;7182218;19;2004632;-83
2024/04/18 01:54:27;;;;;;;13.90;7.77;;;6.80;99.90;;;;;;7284553;19;20294;-84
2024/04/18 01:56:55;;;;;;;12.50;7.67;;;6.90;99.90;;;;;;7285485;19;20199;-83
2024/04/18 01:59:21;;;;;;;17.73;7.70;;;6.90;99.90;;;;;;7285648;19;20533;-83
2024/04/18 02:01:48;;;;;;;13.33;7.93;;;7.00;99.90;;;;;;7284919;19;20192;-83
2024/04/18 02:04:14;;;;;;;12.67;8.00;;;7.00;99.90;;;;;;7284124;19;20690;-82
2024/04/18 02:06:40;;;;;;;14.10;7.90;;;7.00;99.90;;;;;;7281139;19;20194;-83
2024/04/18 02:09:24;;;;;;;12.63;7.67;;;7.00;99.90;;;;;;7285222;19;20187;-83
2024/04/18 02:11:50;;;;;;;11.60;6.80;;;7.00;99.90;;;;;;7282751;19;20189;-84
2024/04/18 02:14:34;;;;;;;12.13;7.10;;;7.00;99.90;;;;;;7181063;19;2005251;-83
2024/04/18 02:17:00;;;;;;;13.57;7.03;;;6.70;99.90;;;;;;7280858;19;20700;-83
2024/04/18 02:19:26;;;;;;;13.00;7.40;;;6.60;99.90;;;;;;7305878;19;20566;-84
2024/04/18 02:22:18;;;;;;;14.10;7.77;;;6.70;99.90;;;;;;7181931;19;2004571;-83
2024/04/18 02:25:05;;;;;;;11.00;6.37;;;6.80;99.90;;;;;;7180892;19;2004606;-83
2024/04/18 02:27:31;;;;;;;12.97;7.23;;;6.80;99.90;;;;;;7285001;19;20219;-82
2024/04/18 02:30:16;;;;;;;12.13;7.03;;;6.80;99.90;;;;;;7280821;19;20547;-83
2024/04/18 02:32:42;;;;;;;12.23;7.20;;;6.80;99.90;;;;;;7285260;19;20190;-83
2024/04/18 02:35:13;;;;;;;14.40;7.47;;;6.80;99.90;;;;;;7283384;19;20190;-82
2024/04/18 02:37:53;;;;;;;14.20;8.07;;;6.80;99.90;;;;;;7282492;19;20193;-83
2024/04/18 02:40:19;;;;;;;15.80;8.07;;;6.80;99.90;;;;;;7283185;19;20278;-83
2024/04/18 02:42:58;;;;;;;15.57;8.87;;;6.80;99.90;;;;;;7277734;19;20316;-81
2024/04/18 02:45:33;;;;;;;17.03;9.00;;;6.80;99.90;;;;;;7282179;19;20194;-82
2024/04/18 02:48:17;;;;;;;16.30;8.97;;;6.80;99.90;;;;;;7283368;19;20207;-83
2024/04/18 02:50:43;;;;;;;15.63;9.00;;;6.70;99.90;;;;;;7281753;19;20195;-82
2024/04/18 02:53:09;;;;;;;16.53;9.03;;;6.70;99.90;;;;;;7280107;19;20194;-82
2024/04/18 02:55:55;;;;;;;14.73;8.57;;;6.60;99.90;;;;;;7282841;19;20183;-82
2024/04/18 02:58:29;;;;;;;17.43;8.70;;;6.50;99.90;;;;;;7264096;19;20703;-82
2024/04/18 03:01:14;;;;;;;15.97;9.30;;;6.40;99.90;;;;;;7279666;19;20303;-83
2024/04/18 03:03:40;;;;;;;14.17;9.03;;;6.50;99.90;;;;;;7280902;19;20631;-82
2024/04/18 03:06:06;;;;;;;16.97;9.20;;;6.50;99.90;;;;;;7281174;19;20178;-82
2024/04/18 03:08:32;;;;;;;16.23;9.50;;;6.60;99.90;;;;;;7282504;19;20273;-83
2024/04/18 03:11:14;;;;;;;18.07;9.23;;;6.70;99.90;;;;;;7282697;19;20648;-83
2024/04/18 03:14:00;;;;;;;15.60;9.03;;;6.70;99.90;;;;;;7260119;19;20198;-83
2024/04/18 03:16:29;;;;;;;15.47;8.67;;;6.70;99.90;;;;;;7293204;19;20698;-82
2024/04/18 03:19:15;;;;;;;16.37;9.00;;;6.70;99.90;;;;;;7283202;19;20477;-83
2024/04/18 03:21:53;;;;;;;14.47;9.30;;;6.70;99.90;;;;;;7281421;19;20189;-83
2024/04/18 03:24:21;;;;;;;16.50;11.77;;;6.60;99.90;;;;;;7281847;19;20203;-83
2024/04/18 03:26:47;;;;;;;16.30;11.13;;;6.40;99.90;;;;;;7281397;19;20718;-83
2024/04/18 03:29:14;;;;;;;14.40;10.20;;;6.50;99.90;;;;;;7281011;19;20204;-83
2024/04/18 03:31:55;;;;;;;14.20;9.17;;;6.50;99.90;;;;;;7281774;19;20203;-83
2024/04/18 03:34:41;;;;;;;16.87;9.73;;;6.40;99.90;;;;;;7178834;19;2004459;-82
2024/04/18 03:37:07;;;;;;;16.30;9.17;;;6.30;99.90;;;;;;7282614;19;20197;-82
2024/04/18 03:39:33;;;;;;;14.73;9.10;;;6.20;99.90;;;;;;7280514;19;20223;-83
2024/04/18 03:41:58;;;;;;;16.00;9.23;;;6.30;99.90;;;;;;7302749;19;20194;-82
2024/04/18 03:44:44;;;;;;;14.47;8.47;;;6.20;99.90;;;;;;7286392;19;20195;-82
2024/04/18 03:47:10;;;;;;;13.30;8.50;;;5.90;99.90;;;;;;7287093;19;20716;-82
2024/04/18 03:49:36;;;;;;;17.57;9.27;;;5.80;99.90;;;;;;7288157;19;20222;-82
2024/04/18 03:52:02;;;;;;;16.47;10.03;;;5.80;99.90;;;;;;7285884;19;20622;-82
2024/04/18 03:54:34;;;;;;;14.43;9.23;;;5.90;99.90;;;;;;7287594;19;20279;-82
2024/04/18 03:57:01;;;;;;;17.57;9.90;;;6.00;99.90;;;;;;7287528;19;20275;-82
2024/04/18 03:59:31;;;;;;;17.33;10.00;;;5.90;99.90;;;;;;7288871;19;20200;-82
2024/04/18 04:01:57;;;;;;;16.53;10.10;;;6.00;99.90;;;;;;7313095;19;20189;-83
2024/04/18 04:04:23;;;;;;;17.93;10.53;;;5.90;99.90;;;;;;7288019;19;20192;-83
2024/04/18 04:06:48;;;;;;;17.70;10.63;;;6.00;99.90;;;;;;7284215;19;20194;-82
2024/04/18 04:09:14;;;;;;;15.07;9.27;;;5.90;99.90;;;;;;7287429;19;20249;-83
2024/04/18 04:11:40;;;;;;;16.00;9.73;;;6.00;99.90;;;;;;7287309;19;20180;-83
2024/04/18 04:14:09;;;;;;;14.33;9.07;;;6.00;99.90;;;;;;7286639;19;20197;-82
2024/04/18 04:16:51;;;;;;;16.27;9.57;;;6.00;99.90;;;;;;7287967;19;20271;-82
2024/04/18 04:19:17;;;;;;;16.40;9.90;;;6.00;99.90;;;;;;7289574;19;20288;-83
2024/04/18 04:21:49;;;;;;;17.77;11.27;;;6.10;99.90;;;;;;7288286;19;20203;-83
2024/04/18 04:24:15;;;;;;;19.60;11.00;;;6.20;99.90;;;;;;7285884;19;20248;-83
2024/04/18 04:26:50;;;;;;;16.53;10.30;;;6.30;99.90;;;;;;7287216;19;20274;-82
2024/04/18 04:29:16;;;;;;;17.23;10.73;;;6.40;99.90;;;;;;7286668;19;20194;-83
2024/04/18 04:31:42;;;;;;;18.17;11.30;;;6.50;99.90;;;;;;7283926;19;20201;-82
2024/04/18 04:34:09;;;;;;;18.60;11.37;;;6.60;99.90;;;;;;7285430;19;20209;-82
2024/04/18 04:36:35;;;;;;;20.30;12.70;;;6.60;99.90;;;;;;7287525;19;20672;-81
2024/04/18 04:39:01;;;;;;;20.07;12.63;;;6.60;99.90;;;;;;7286639;19;20211;-81
2024/04/18 04:41:39;;;;;;;20.77;12.37;;;6.70;99.90;;;;;;7286027;19;20290;-81
2024/04/18 04:44:05;;;;;;;18.67;11.77;;;6.70;99.90;;;;;;7286305;19;20178;-81
2024/04/18 04:46:46;;;;;;;23.50;13.77;;;6.80;99.90;;;;;;7286283;19;20186;-82
2024/04/18 04:49:15;;;;;;;21.63;12.70;;;6.80;99.90;;;;;;7284498;19;20549;-80
2024/04/18 04:52:03;;;;;;;19.43;12.43;;;6.80;99.90;;;;;;7278756;19;20191;-82
2024/04/18 04:54:41;;;;;;;18.27;11.60;;;6.70;99.90;;;;;;7286713;19;20261;-83
2024/04/18 04:57:08;;;;;;;19.30;11.63;;;6.70;99.90;;;;;;7286949;19;20185;-84
2024/04/18 04:59:33;;;;;;;17.53;11.10;;;6.60;99.90;;;;;;7286312;19;20735;-83
2024/04/18 05:01:59;;;;;;;20.40;11.13;;;6.40;99.90;;;;;;7294461;19;20182;-85
2024/04/18 05:04:43;;;;;;;18.53;11.97;;;6.40;99.90;;;;;;7286422;19;20198;-86
2024/04/18 05:07:28;;;;;;;18.97;11.53;;;6.40;99.90;;;;;;7282719;19;20251;-84
2024/04/18 05:09:54;;;;;;;24.87;14.63;;;6.40;99.90;;;;;;7299078;19;20190;-84
2024/04/18 05:12:20;;;;;;;26.13;15.40;;;6.30;99.90;;;;;;7284012;19;20193;-84
2024/04/18 05:14:46;;;;;;;22.60;14.60;;;6.30;99.90;;;;;;7286828;19;20686;-83
2024/04/18 05:17:31;;;;;;;24.43;15.50;;;6.40;99.90;;;;;;7265103;19;20268;-81
2024/04/18 05:20:11;;;;;;;22.70;14.30;;;6.60;99.90;;;;;;7285528;19;20774;-84
2024/04/18 05:22:38;;;;;;;22.63;12.50;;;6.60;99.90;;;;;;7286032;19;20195;-84
2024/04/18 05:25:04;;;;;;;20.33;12.63;;;6.60;99.90;;;;;;7284974;19;20186;-83
2024/04/18 05:27:30;;;;;;;20.63;12.20;;;6.60;99.90;;;;;;7287091;19;20188;-83
2024/04/18 05:32:40;;;;;;;19.33;11.90;;;6.70;99.90;;;;;;7181434;19;2004528;-83
2024/04/18 05:35:09;;;;;;;20.13;12.70;;;7.00;99.90;;;;;;7285124;19;20200;-83
2024/04/18 05:37:34;;;;;;;20.27;13.27;;;7.20;99.90;;;;;;7284191;19;20188;-85
2024/04/18 05:40:00;;;;;;;21.30;13.27;;;7.40;99.90;;;;;;7286241;19;20201;-85
2024/04/18 05:42:26;;;;;;;20.40;12.80;;;7.40;99.90;;;;;;7308352;19;20187;-84
2024/04/18 05:45:08;;;;;;;19.43;12.20;;;7.60;99.90;;;;;;7181061;19;2004819;-84
2024/04/18 05:47:33;;;;;;;18.37;12.57;;;8.50;99.90;;;;;;7285081;19;20191;-86
2024/04/18 05:49:59;;;;;;;16.27;11.23;;;9.80;99.90;;;;;;7297759;19;20191;-86
2024/04/18 05:52:27;;;;;;;15.70;10.43;;;11.30;99.90;;;;;;7308865;19;20190;-86
2024/04/18 05:54:53;;;;;;;13.70;8.87;;;12.10;99.90;;;;;;7286434;19;20196;-81
2024/04/18 05:57:38;;;;;;;13.70;8.80;;;12.80;99.90;;;;;;7179430;19;2004477;-82
2024/04/18 06:00:21;;;;;;;12.33;8.50;;;13.60;99.90;;;;;;7284044;19;20256;-82
2024/04/18 06:02:47;;;;;;;12.23;8.20;;;14.30;99.90;;;;;;7282607;19;20282;-82
2024/04/18 06:05:12;;;;;;;14.77;8.43;;;14.70;99.90;;;;;;7280034;19;20289;-82
2024/04/18 06:07:57;;;;;;;14.30;8.90;;;14.90;99.90;;;;;;7284794;19;20233;-82
2024/04/18 06:10:22;;;;;;;12.60;8.60;;;15.30;99.90;;;;;;7283111;19;20722;-82
2024/04/18 06:12:48;;;;;;;13.40;8.27;;;15.50;99.90;;;;;;7284234;19;20537;-82
2024/04/18 06:15:14;;;;;;;11.97;7.63;;;15.10;99.90;;;;;;7284259;19;20752;-82
2024/04/18 06:17:40;;;;;;;15.10;9.33;;;15.20;99.90;;;;;;7282880;19;20200;-82
2024/04/18 06:20:06;;;;;;;15.43;9.13;;;15.50;99.90;;;;;;7283399;19;20636;-82
2024/04/18 06:22:32;;;;;;;12.57;7.90;;;16.40;99.90;;;;;;7283545;19;20199;-82
2024/04/18 06:25:17;;;;;;;17.63;9.77;;;16.70;99.90;;;;;;7282866;19;20233;-82
2024/04/18 06:27:43;;;;;;;13.47;9.10;;;16.50;99.90;;;;;;7281445;19;20184;-82
2024/04/18 06:30:10;;;;;;;17.53;9.53;;;16.50;99.90;;;;;;7282471;19;20309;-82
2024/04/18 06:32:36;;;;;;;12.67;8.17;;;16.60;99.90;;;;;;7281621;19;20187;-82
2024/04/18 06:35:03;;;;;;;12.40;8.23;;;17.10;99.90;;;;;;7281796;19;20244;-82
2024/04/18 06:37:29;;;;;;;13.30;8.13;;;17.10;99.90;;;;;;7298906;19;20674;-82
2024/04/18 06:39:54;;;;;;;14.90;8.70;;;17.70;99.90;;;;;;7296026;19;20193;-82
2024/04/18 06:42:20;;;;;;;13.27;8.20;;;18.20;99.90;;;;;;7282445;19;20209;-82
2024/04/18 06:44:46;;;;;;;14.03;8.20;;;17.80;99.90;;;;;;7281382;19;20210;-82
2024/04/18 06:47:12;;;;;;;14.70;8.83;;;17.90;99.90;;;;;;7283320;19;20636;-82
2024/04/18 06:49:37;;;;;;;12.07;7.93;;;18.90;99.90;;;;;;7282325;19;20196;-82
2024/04/18 06:52:05;;;;;;;13.00;8.33;;;19.20;99.90;;;;;;7281532;19;20300;-82
2024/04/18 06:54:31;;;;;;;13.80;7.70;;;20.10;99.90;;;;;;7279958;19;20209;-83
2024/04/18 06:56:56;;;;;;;13.40;7.37;;;20.70;99.90;;;;;;7303339;19;20184;-82
2024/04/18 06:59:22;;;;;;;11.80;7.90;;;20.40;99.90;;;;;;7281305;19;20709;-82
2024/04/18 07:01:48;;;;;;;16.53;8.70;;;19.80;99.90;;;;;;7282123;19;20285;-82
2024/04/18 07:04:13;;;;;;;12.90;8.13;;;18.00;99.90;;;;;;7281677;19;20189;-82
2024/04/18 07:07:00;;;;;;;11.60;8.13;;;17.70;99.90;;;;;;7274644;19;20196;-82
2024/04/18 07:09:36;;;;;;;12.67;8.03;;;17.70;99.90;;;;;;7280085;19;20192;-82
2024/04/18 07:12:16;;;;;;;13.53;7.90;;;17.80;99.90;;;;;;7281625;19;20197;-82
2024/04/18 07:14:42;;;;;;;14.60;7.87;;;17.30;99.90;;;;;;7281044;19;20322;-82
2024/04/18 07:17:10;;;;;;;12.27;7.67;;;18.40;99.90;;;;;;7288509;19;20208;-82
2024/04/18 07:19:36;;;;;;;12.90;7.27;;;19.00;99.90;;;;;;7287558;19;20569;-82
2024/04/18 07:22:02;;;;;;;11.70;7.70;;;18.80;99.90;;;;;;7286458;19;20189;-82
2024/04/18 07:24:49;;;;;;;12.13;7.00;;;18.60;99.90;;;;;;7288157;19;20188;-82
2024/04/18 07:27:15;;;;;;;11.83;6.07;;;18.60;99.90;;;;;;7285789;19;20192;-83
2024/04/18 07:29:41;;;;;;;12.90;5.97;;;19.80;99.90;;;;;;7288079;19;20666;-82
2024/04/18 07:32:07;;;;;;;8.50;4.07;;;20.60;99.90;;;;;;7289988;19;20657;-83
2024/04/18 07:34:33;;;;;;;11.53;4.20;;;20.50;99.90;;;;;;7289459;19;20217;-82
2024/04/18 07:36:59;;;;;;;11.23;4.07;;;19.60;99.90;;;;;;7302280;19;20192;-82
2024/04/18 07:39:25;;;;;;;11.90;3.80;;;20.70;99.90;;;;;;7304172;19;20215;-82
2024/04/18 07:41:51;;;;;;;10.87;4.40;;;21.00;99.90;;;;;;7289285;19;20197;-83
2024/04/18 07:44:17;;;;;;;11.53;5.10;;;21.00;99.90;;;;;;7286893;19;20197;-83
2024/04/18 07:46:44;;;;;;;12.93;4.73;;;22.10;99.90;;;;;;7287339;19;20213;-82
2024/04/18 07:49:10;;;;;;;11.73;4.70;;;22.90;99.90;;;;;;7288510;19;20547;-83
2024/04/18 07:51:37;;;;;;;10.73;4.20;;;23.50;99.90;;;;;;7288574;19;20667;-83
2024/04/18 07:54:03;;;;;;;9.20;4.03;;;24.80;97.20;;;;;;7288829;19;20184;-83
2024/04/18 07:56:28;;;;;;;11.20;4.23;;;25.40;93.90;;;;;;7309866;19;20533;-83
2024/04/18 07:58:56;;;;;;;8.17;2.80;;;26.20;91.80;;;;;;7287878;19;20208;-81
2024/04/18 08:01:21;;;;;;;7.13;2.97;;;25.50;83.60;;;;;;7289208;19;20204;-81
2024/04/18 08:03:47;;;;;;;9.53;3.03;;;25.30;81.30;;;;;;7287606;19;20189;-81
2024/04/18 08:06:13;;;;;;;10.90;4.10;;;25.50;77.90;;;;;;7288508;19;20193;-80
2024/04/18 08:08:39;;;;;;;8.93;3.50;;;24.40;83.60;;;;;;7288402;19;20567;-80
2024/04/18 08:11:08;;;;;;;8.07;3.77;;;24.40;87.00;;;;;;7288089;19;20185;-81
2024/04/18 08:13:36;;;;;;;11.00;3.87;;;23.80;86.30;;;;;;7287593;19;20634;-81
2024/04/18 08:16:02;;;;;;;9.50;3.87;;;23.60;86.50;;;;;;7288241;19;20189;-80
2024/04/18 08:18:28;;;;;;;7.20;3.60;;;23.10;87.80;;;;;;7307962;19;20267;-81
2024/04/18 08:20:56;;;;;;;9.37;3.13;;;23.30;85.70;;;;;;7288285;19;20202;-81
2024/04/18 08:23:22;;;;;;;6.93;2.77;;;22.10;88.00;;;;;;7287767;19;20200;-80
2024/04/18 08:25:48;;;;;;;6.07;1.90;;;21.10;90.00;;;;;;7289724;19;20199;-79
2024/04/18 08:28:15;;;;;;;7.10;2.10;;;21.70;86.00;;;;;;7295528;19;20190;-81
2024/04/18 08:30:40;;;;;;;6.53;2.10;;;22.10;85.70;;;;;;7288515;19;20186;-81
2024/04/18 08:33:06;;;;;;;8.03;2.03;;;21.40;86.40;;;;;;7290417;19;20542;-81
2024/04/18 08:35:32;;;;;;;7.70;2.30;;;20.90;84.80;;;;;;7292439;19;20719;-81
2024/04/18 08:37:58;;;;;;;7.80;2.20;;;19.50;90.50;;;;;;7311368;19;20254;-81
2024/04/18 08:40:25;;;;;;;8.10;2.60;;;18.70;91.90;;;;;;7288546;19;20291;-80
2024/04/18 08:42:51;;;;;;;9.23;2.37;;;18.50;93.50;;;;;;7284975;19;20193;-80
2024/04/18 08:45:22;;;;;;;7.97;2.00;;;18.30;92.40;;;;;;7285627;19;20542;-80
2024/04/18 08:47:49;;;;;;;6.07;1.80;;;18.10;90.80;;;;;;7285555;19;20225;-81
2024/04/18 08:50:16;;;;;;;5.50;1.50;;;17.90;91.60;;;;;;7285069;19;20185;-80
2024/04/18 08:52:44;;;;;;;10.27;1.93;;;18.20;92.50;;;;;;7283384;19;20659;-80
2024/04/18 08:55:10;;;;;;;9.20;2.00;;;18.90;90.10;;;;;;7286230;19;20192;-79
2024/04/18 08:58:03;;;;;;;7.80;1.90;;;17.70;89.40;;;;;;7286577;19;20665;-80
2024/04/18 09:00:29;;;;;;;5.87;1.87;;;16.70;92.50;;;;;;7286176;19;20660;-81
2024/04/18 09:02:55;;;;;;;8.80;1.80;;;16.00;93.40;;;;;;7286016;19;20195;-80
2024/04/18 09:05:21;;;;;;;8.43;1.73;;;17.30;95.10;;;;;;7285496;19;20193;-81
2024/04/18 09:07:47;;;;;;;8.57;1.70;;;19.30;93.30;;;;;;7283868;19;20216;-80
2024/04/18 09:10:14;;;;;;;5.77;1.40;;;17.40;92.00;;;;;;7284568;19;20187;-80
2024/04/18 09:12:41;;;;;;;6.90;1.60;;;16.20;93.70;;;;;;7284198;19;20202;-80
2024/04/18 09:15:07;;;;;;;4.97;1.40;;;15.30;94.90;;;;;;7285143;19;20190;-80
2024/04/18 09:17:32;;;;;;;5.90;1.50;;;15.60;96.70;;;;;;7284790;19;20273;-80
2024/04/18 09:19:58;;;;;;;7.77;1.83;;;17.40;94.40;;;;;;7307786;19;20188;-81
2024/04/18 09:22:24;;;;;;;8.73;1.27;;;20.20;93.10;;;;;;7284745;19;20289;-81
2024/04/18 09:24:50;;;;;;;6.17;1.40;;;20.30;90.40;;;;;;7284540;19;20213;-80
2024/04/18 09:27:15;;;;;;;4.50;1.20;;;20.90;89.60;;;;;;7285438;19;20200;-81
2024/04/18 09:29:43;;;;;;;5.33;1.70;;;20.10;88.80;;;;;;7284267;19;20203;-81
2024/04/18 09:32:14;;;;;;;5.87;1.70;;;20.40;87.90;;;;;;7284270;19;20211;-81
2024/04/18 09:34:43;;;;;;;5.23;1.80;;;22.00;88.30;;;;;;7284425;19;20233;-81
2024/04/18 09:37:14;;;;;;;11.67;2.00;;;21.90;86.90;;;;;;7282215;19;20677;-81
2024/04/18 09:39:43;;;;;;;8.67;1.93;;;22.10;87.90;;;;;;7282031;19;20664;-81
2024/04/18 09:42:36;;;;;;;6.87;1.70;;;20.70;88.20;;;;;;7283579;19;20218;-81
2024/04/18 09:45:04;;;;;;;4.33;1.20;;;18.60;88.80;;;;;;7261564;19;20188;-81
2024/04/18 09:47:32;;;;;;;4.80;1.20;;;17.20;89.80;;;;;;7296132;19;20196;-80
2024/04/18 09:49:58;;;;;;;5.23;1.10;;;16.90;91.60;;;;;;7306877;19;20666;-81
2024/04/18 09:52:25;;;;;;;6.37;1.50;;;17.10;92.50;;;;;;7285239;19;20195;-81
2024/04/18 09:54:52;;;;;;;4.87;1.07;;;18.80;91.70;;;;;;7283987;19;20188;-81
2024/04/18 09:57:19;;;;;;;4.40;1.20;;;19.70;86.80;;;;;;7283839;19;20200;-81
2024/04/18 09:59:46;;;;;;;5.63;1.37;;;19.40;86.40;;;;;;7283093;19;20196;-81
2024/04/18 10:02:14;;;;;;;6.33;1.20;;;18.00;87.90;;;;;;7282135;19;20188;-80
2024/04/18 10:04:40;;;;;;;7.83;1.50;;;16.30;92.90;;;;;;7283513;19;20190;-80
2024/04/18 10:07:09;;;;;;;10.73;1.70;;;15.50;94.60;;;;;;7283761;19;20664;-80
2024/04/18 10:09:37;;;;;;;5.97;1.50;;;15.10;95.90;;;;;;7282220;19;20193;-81
2024/04/18 10:12:06;;;;;;;10.77;1.60;;;15.90;96.90;;;;;;7283097;19;20188;-80
2024/04/18 10:14:31;;;;;;;7.63;1.67;;;18.30;93.90;;;;;;7282753;19;20196;-81
2024/04/18 10:16:57;;;;;;;6.00;1.40;;;20.70;92.00;;;;;;7304228;19;20181;-81
2024/04/18 10:19:28;;;;;;;6.17;1.50;;;22.60;85.50;;;;;;7283147;19;20210;-82
2024/04/18 10:21:56;;;;;;;4.60;1.47;;;22.90;80.10;;;;;;7282481;19;20203;-82
2024/04/18 10:24:21;;;;;;;3.80;1.20;;;23.90;78.90;;;;;;7282463;19;20195;-82
2024/04/18 10:26:59;;;;;;;4.50;1.17;;;24.30;76.70;;;;;;7281599;19;20191;-82
2024/04/18 10:29:26;;;;;;;5.17;1.20;;;23.20;69.00;;;;;;7283222;19;20193;-82
2024/04/18 10:31:54;;;;;;;3.77;1.00;;;20.50;73.70;;;;;;7281446;19;20206;-81
2024/04/18 10:34:26;;;;;;;6.50;1.53;;;19.30;79.70;;;;;;7282072;19;20182;-80
2024/04/18 10:37:18;;;;;;;7.73;1.90;;;18.40;82.70;;;;;;7277962;19;20193;-79
2024/04/18 10:39:47;;;;;;;6.33;1.97;;;17.60;88.20;;;;;;7178505;19;2004688;-79
2024/04/18 10:42:18;;;;;;;6.30;1.70;;;17.80;90.60;;;;;;7281341;19;20195;-80
2024/04/18 10:44:46;;;;;;;6.33;1.73;;;18.10;90.90;;;;;;7282257;19;20659;-79
2024/04/18 10:47:12;;;;;;;5.43;1.70;;;20.10;90.60;;;;;;7283494;19;20189;-80
2024/04/18 10:49:38;;;;;;;5.53;1.57;;;21.50;84.40;;;;;;7280154;19;20189;-80
2024/04/18 10:52:08;;;;;;;4.10;1.20;;;22.40;82.10;;;;;;7284960;19;20193;-80
2024/04/18 10:54:35;;;;;;;5.23;1.27;;;22.30;77.40;;;;;;7278298;19;20655;-80
2024/04/18 10:57:01;;;;;;;6.73;2.07;;;21.80;78.60;;;;;;7283792;19;20190;-80
2024/04/18 10:59:27;;;;;;;7.93;2.50;;;20.90;81.90;;;;;;7309413;19;20189;-80
2024/04/18 11:02:04;;;;;;;5.10;2.37;;;20.10;85.40;;;;;;7282924;19;20192;-80
2024/04/18 11:04:30;;;;;;;7.03;2.40;;;19.40;88.30;;;;;;7274698;19;20187;-80
2024/04/18 11:06:56;;;;;;;7.13;2.73;;;18.90;86.50;;;;;;7298126;19;20184;-80
2024/04/18 11:09:21;;;;;;;8.30;2.57;;;18.10;89.30;;;;;;7281777;19;20184;-80
2024/04/18 11:11:48;;;;;;;5.60;2.30;;;17.50;90.70;;;;;;7280257;19;20888;-80
2024/04/18 11:14:14;;;;;;;5.70;1.70;;;17.50;91.60;;;;;;7279351;19;20214;-80
2024/04/18 11:16:40;;;;;;;7.50;2.30;;;18.80;90.90;;;;;;7281412;19;20219;-80
2024/04/18 11:19:06;;;;;;;5.37;1.93;;;20.20;88.30;;;;;;7280066;19;20301;-80
2024/04/18 11:21:32;;;;;;;4.27;1.60;;;21.10;82.00;;;;;;7281343;19;20640;-80
2024/04/18 11:23:57;;;;;;;6.50;1.40;;;20.70;81.60;;;;;;7303044;19;20185;-80
2024/04/18 11:26:26;;;;;;;5.10;1.23;;;19.90;84.20;;;;;;7280557;19;20280;-80
2024/04/18 11:28:54;;;;;;;6.67;1.50;;;19.20;86.40;;;;;;7280093;19;20722;-80
2024/04/18 11:31:20;;;;;;;7.43;1.53;;;18.60;90.90;;;;;;7280719;19;20202;-80
2024/04/18 11:33:46;;;;;;;5.10;1.30;;;18.10;91.50;;;;;;7278352;19;20201;-80
2024/04/18 11:36:14;;;;;;;7.43;1.20;;;17.70;91.80;;;;;;7281099;19;20187;-80
2024/04/18 11:38:40;;;;;;;7.40;1.37;;;17.40;92.80;;;;;;7279451;19;20195;-81
2024/04/18 11:41:06;;;;;;;4.27;1.23;;;17.00;93.50;;;;;;7281074;19;20259;-81
2024/04/18 11:43:32;;;;;;;10.13;1.77;;;17.10;95.50;;;;;;7280031;19;20187;-79
2024/04/18 11:45:58;;;;;;;6.03;1.40;;;17.20;92.80;;;;;;7303077;19;20648;-81
2024/04/18 11:48:23;;;;;;;3.93;1.27;;;18.20;93.40;;;;;;7280112;19;20252;-80
2024/04/18 11:50:49;;;;;;;5.90;1.20;;;20.50;90.90;;;;;;7281409;19;20185;-81
2024/04/18 11:53:15;;;;;;;7.13;1.10;;;22.70;88.20;;;;;;7280440;19;20189;-81
2024/04/18 11:55:41;;;;;;;7.90;1.33;;;23.40;78.80;;;;;;7280067;19;20190;-81
2024/04/18 11:58:39;;;;;;;4.07;1.07;;;25.00;77.90;;;;;;7177327;19;2004647;-81
2024/04/18 12:01:04;;;;;;;2.83;0.70;;;24.90;72.10;;;;;;7281426;19;20601;-81
2024/04/18 12:03:40;;;;;;;4.70;0.90;;;26.00;67.60;;;;;;7286326;19;20184;-81
2024/04/18 12:06:24;;;;;;;4.10;0.90;;;24.80;69.50;;;;;;7286564;19;20191;-81
2024/04/18 12:08:50;;;;;;;2.97;1.00;;;24.00;70.90;;;;;;7286934;19;20202;-82
2024/04/18 12:11:26;;;;;;;4.57;1.30;;;22.70;76.50;;;;;;7287505;19;20685;-81
2024/04/18 12:14:09;;;;;;;4.60;1.13;;;21.40;78.50;;;;;;7182266;19;2004624;-81
2024/04/18 12:16:52;;;;;;;4.90;1.33;;;19.90;80.70;;;;;;7286035;19;20197;-81
2024/04/18 12:19:20;;;;;;;3.33;1.30;;;19.00;83.00;;;;;;7284247;19;20179;-81
2024/04/18 12:21:45;;;;;;;2.43;1.10;;;18.60;87.40;;;;;;7286267;19;20197;-81
2024/04/18 12:24:11;;;;;;;6.93;1.27;;;18.10;86.70;;;;;;7285910;19;20548;-81
2024/04/18 12:26:38;;;;;;;3.70;1.03;;;17.70;86.80;;;;;;7285775;19;20644;-80
2024/04/18 12:29:04;;;;;;;6.00;1.57;;;16.90;91.30;;;;;;7285770;19;20782;-80
2024/04/18 12:31:30;;;;;;;7.83;1.60;;;16.60;91.30;;;;;;7300160;19;20213;-80
2024/04/18 12:33:56;;;;;;;4.33;1.10;;;16.40;93.90;;;;;;7301806;19;20207;-80
2024/04/18 12:36:22;;;;;;;2.43;1.00;;;16.50;93.60;;;;;;7285829;19;20198;-80
2024/04/18 12:38:48;;;;;;;4.30;1.30;;;16.10;93.70;;;;;;7285170;19;20549;-80
2024/04/18 12:41:13;;;;;;;5.90;1.20;;;15.80;94.10;;;;;;7285109;19;20215;-80
2024/04/18 12:43:39;;;;;;;5.20;1.17;;;15.70;95.10;;;;;;7284715;19;20314;-84
2024/04/18 12:46:24;;;;;;;5.17;1.00;;;15.40;95.40;;;;;;7284381;19;20535;-79
2024/04/18 12:48:51;;;;;;;3.17;0.90;;;15.70;96.40;;;;;;7287145;19;20218;-80
2024/04/18 12:51:16;;;;;;;7.43;1.50;;;15.90;94.70;;;;;;7287890;19;20560;-80
2024/04/18 12:53:43;;;;;;;4.03;1.10;;;16.00;96.50;;;;;;7284869;19;20196;-80
2024/04/18 12:56:08;;;;;;;7.10;0.90;;;15.90;95.00;;;;;;7285228;19;20584;-80
2024/04/18 12:58:34;;;;;;;5.07;1.10;;;16.20;95.50;;;;;;7287715;19;20258;-81